Time;durP1;ratioP1;P1;durP2;ratioP2;P2;SDS_P1;SDS_P2;PMS_P1;PMS_P2;Temp;Humidity;BMP_temperature;BMP_pressure;BME280_temperature;BME280_humidity;BME280_pressure;Samples;Min_cycle;Max_cycle;Signal;HPM_P1;HPM_P2
2023/09/21 00:01:17;;;;;;;11.60;5.70;;;;;;;15.07;77.62;98321.34;435049;1256;111400;-42
2023/09/21 00:11:25;;;;;;;9.70;5.00;;;;;;;15.02;77.73;98320.28;435178;1256;107898;-43
2023/09/21 00:21:32;;;;;;;10.80;6.40;;;;;;;14.96;77.99;98316.94;435260;1255;98849;-43
2023/09/21 00:31:39;;;;;;;11.00;5.40;;;;;;;14.92;78.03;98306.17;434861;1256;382140;-43
2023/09/21 00:41:47;;;;;;;13.00;5.40;;;;;;;14.92;78.13;98300.05;435210;1252;99237;-43
2023/09/21 01:32:23;;;;;;;10.40;4.60;;;;;;;15.10;78.05;98260.20;435219;1253;99247;-43
2023/09/21 01:42:32;;;;;;;4.60;3.60;;;;;;;15.16;77.79;98260.20;435276;1263;111181;-42
2023/09/21 01:52:39;;;;;;;6.30;3.80;;;;;;;15.19;77.63;98245.67;436063;1255;108170;-43
2023/09/21 02:12:56;;;;;;;9.90;4.70;;;;;;;15.20;77.57;98236.28;435132;1256;107230;-41
2023/09/21 02:23:04;;;;;;;4.90;4.10;;;;;;;15.13;77.76;98232.09;435222;1256;99355;-42
2023/09/21 02:43:18;;;;;;;5.60;4.60;;;;;;;14.91;77.65;98219.49;435078;1252;108908;-42
2023/09/21 02:53:27;;;;;;;6.60;4.80;;;;;;;14.81;78.06;98210.70;435236;1253;99303;-41
2023/09/21 03:13:40;;;;;;;7.10;4.10;;;;;;;14.88;78.03;98196.86;435252;1256;99340;-42
2023/09/21 03:33:52;;;;;;;4.00;3.20;;;;;;;15.11;77.82;98174.66;435222;1253;108066;-42
2023/09/21 03:43:58;;;;;;;5.20;3.80;;;;;;;15.10;77.88;98173.39;435274;1253;99222;-42
2023/09/21 03:54:05;;;;;;;5.80;3.80;;;;;;;15.08;77.93;98180.02;435014;1256;107978;-41
2023/09/21 04:14:19;;;;;;;7.40;4.40;;;;;;;14.96;77.72;98166.34;435098;1256;111360;-42
2023/09/21 04:24:27;;;;;;;9.40;4.70;;;;;;;14.89;78.07;98161.28;435141;1256;110493;-42
2023/09/21 04:34:36;;;;;;;5.70;3.70;;;;;;;14.97;78.02;98157.55;435024;1256;98341;-43
2023/09/21 04:44:43;;;;;;;6.90;3.10;;;;;;;15.09;78.13;98151.19;435109;1253;108698;-41
2023/09/21 04:54:50;;;;;;;5.60;3.70;;;;;;;15.29;78.02;98151.02;435506;1256;99211;-42
2023/09/21 05:04:57;;;;;;;7.60;3.50;;;;;;;15.48;78.16;98144.73;435216;1255;112688;-43
2023/09/21 05:15:06;;;;;;;6.10;2.70;;;;;;;15.71;77.94;98146.61;435043;1265;109094;-42
2023/09/21 05:25:14;;;;;;;5.00;2.90;;;;;;;16.71;78.27;98144.89;435170;1254;99214;-42
2023/09/21 05:35:23;;;;;;;7.00;2.80;;;;;;;17.99;77.26;98147.31;435103;1253;108049;-41
2023/09/21 05:45:29;;;;;;;11.10;4.60;;;;;;;19.08;76.03;98142.13;435078;1254;99211;-42
2023/09/21 05:55:36;;;;;;;15.50;4.40;;;;;;;20.12;74.85;98145.02;435146;1255;111932;-43
2023/09/21 06:25:56;;;;;;;5.80;2.00;;;;;;;21.75;67.03;98137.26;435188;1251;107378;-41
2023/09/21 06:46:10;;;;;;;7.00;1.90;;;;;;;23.11;64.80;98131.09;435161;1256;111399;-43
2023/09/21 06:56:17;;;;;;;3.00;1.80;;;;;;;23.60;63.22;98132.29;435263;1253;107693;-42
2023/09/21 07:06:25;;;;;;;2.50;2.20;;;;;;;23.28;60.57;98131.65;435299;1256;98441;-41
2023/09/21 07:16:30;;;;;;;;;;;;;;;23.02;60.11;98132.91;435150;1256;109245;-41
2023/09/21 07:26:36;;;;;;;4.50;1.80;;;;;;;22.84;59.30;98127.46;435311;1256;99240;-41
2023/09/21 07:36:46;;;;;;;2.70;1.60;;;;;;;22.77;60.09;98121.52;435246;1253;112958;-44
2023/09/21 07:46:53;;;;;;;7.80;2.50;;;;;;;22.97;59.45;98117.77;435229;1256;106836;-42
2023/09/21 07:57:03;;;;;;;5.80;2.60;;;;;;;23.75;59.96;98115.96;435197;1255;98695;-42
2023/09/21 08:07:09;;;;;;;3.50;1.80;;;;;;;24.38;57.79;98110.00;435271;1264;107836;-40
2023/09/21 08:17:15;;;;;;;13.00;2.00;;;;;;;24.52;55.54;98107.38;435176;1256;98819;-40
2023/09/21 08:27:22;;;;;;;;;;;;;;;24.66;54.12;98099.69;435361;1256;111851;-42
2023/09/21 08:47:34;;;;;;;2.20;1.50;;;;;;;25.20;53.56;98092.52;435172;1257;99861;-42
2023/09/21 08:57:41;;;;;;;;;;;;;;;25.30;52.67;98087.75;435241;1257;108211;-44
2023/09/21 09:07:47;;;;;;;3.90;1.50;;;;;;;25.60;52.83;98083.16;435228;1253;98025;-41
2023/09/21 09:18:03;;;;;;;3.40;1.80;;;;;;;25.80;51.67;98080.36;435302;1255;111833;-42
2023/09/21 09:28:10;;;;;;;4.20;1.70;;;;;;;26.09;51.19;98070.52;435624;1256;108720;-41
2023/09/21 09:38:17;;;;;;;6.20;1.70;;;;;;;26.16;50.74;98072.73;435648;1254;97982;-41
2023/09/21 09:48:26;;;;;;;6.40;1.80;;;;;;;26.36;49.30;98065.38;435327;1257;107866;-41
2023/09/21 10:08:42;;;;;;;8.70;2.10;;;;;;;26.39;47.79;98044.23;435214;1257;113857;-40
2023/09/21 10:29:05;;;;;;;7.50;2.10;;;;;;;26.39;46.43;98031.08;435279;1254;98347;-42
2023/09/21 10:49:34;;;;;;;7.70;2.50;;;;;;;26.62;45.77;97996.34;435367;1251;99241;-41
2023/09/21 10:59:44;;;;;;;5.80;2.50;;;;;;;26.75;45.46;97991.92;435269;1254;112016;-42
2023/09/21 11:10:06;;;;;;;4.80;2.60;;;;;;;26.72;44.36;97979.84;435125;1252;108350;-40
2023/09/21 11:20:14;;;;;;;3.40;2.70;;;;;;;26.92;44.62;97958.44;435238;1254;99452;-41
2023/09/21 11:30:22;;;;;;;5.60;2.40;;;;;;;26.87;43.76;97949.66;435116;1257;107542;-40
2023/09/21 11:40:31;;;;;;;3.70;2.80;;;;;;;26.92;44.26;97944.98;435396;1254;99220;-42
2023/09/21 12:00:49;;;;;;;4.70;2.60;;;;;;;26.72;42.99;97916.46;435165;1254;107473;-41
2023/09/21 12:10:58;;;;;;;8.10;2.80;;;;;;;26.60;43.56;97902.02;435245;1254;97979;-40
2023/09/21 12:41:17;;;;;;;3.00;2.20;;;;;;;26.41;44.33;97867.86;435153;1253;111629;-42
2023/09/21 12:51:24;;;;;;;23.40;3.50;;;;;;;26.25;44.47;97858.73;435301;1252;108144;-43
2023/09/21 13:01:30;;;;;;;5.00;2.90;;;;;;;26.25;44.90;97853.39;435141;1251;98072;-42
2023/09/21 13:11:37;;;;;;;8.80;3.00;;;;;;;26.13;44.47;97839.23;435592;1254;108191;-42
2023/09/21 13:21:43;;;;;;;4.30;2.60;;;;;;;26.04;45.16;97835.23;435237;1255;99221;-42
2023/09/21 13:52:04;;;;;;;7.60;3.10;;;;;;;26.00;45.11;97805.27;435238;1257;99365;-43
2023/09/21 14:12:19;;;;;;;9.50;3.10;;;;;;;25.38;46.58;97792.08;435334;1256;99221;-42
2023/09/21 14:22:24;;;;;;;5.60;3.30;;;;;;;25.35;47.13;97782.33;435295;1256;112217;-41
2023/09/21 14:32:30;;;;;;;4.90;3.40;;;;;;;25.31;47.49;97777.28;435249;1253;108073;-41
2023/09/21 14:52:45;;;;;;;4.80;3.70;;;;;;;25.19;47.79;97760.03;435352;1253;107777;-42
2023/09/21 15:02:52;;;;;;;7.00;3.00;;;;;;;25.13;48.41;97753.54;435566;1252;99219;-41
2023/09/21 15:12:59;;;;;;;5.00;2.80;;;;;;;25.21;49.09;97749.42;435052;1256;111746;-41
2023/09/21 15:23:04;;;;;;;2.90;2.20;;;;;;;25.07;49.25;97741.23;435394;1251;107940;-41
2023/09/21 15:33:13;;;;;;;8.10;2.00;;;;;;;24.71;50.06;97747.70;435205;1251;99234;-41
2023/09/21 15:53:44;;;;;;;5.10;2.10;;;;;;;24.27;50.87;97729.67;435293;1252;99314;-42
2023/09/21 16:03:50;;;;;;;3.90;2.30;;;;;;;24.11;51.29;97723.80;435231;1253;111605;-44
2023/09/21 16:13:58;;;;;;;6.60;2.70;;;;;;;23.87;51.78;97726.27;435286;1256;107488;-41
2023/09/21 16:24:06;;;;;;;4.50;2.90;;;;;;;23.56;52.31;97725.73;435157;1255;97992;-42
2023/09/21 16:34:13;;;;;;;6.20;2.40;;;;;;;23.25;52.75;97724.95;435261;1256;108066;-41
2023/09/21 16:44:19;;;;;;;5.60;2.60;;;;;;;23.00;53.23;97715.70;435269;1252;99211;-42
2023/09/21 17:04:29;;;;;;;6.10;2.80;;;;;;;22.46;54.59;97707.73;436619;1256;107751;-43
2023/09/21 17:24:41;;;;;;;7.80;5.30;;;;;;;22.13;55.07;97691.82;435167;1251;107975;-42
2023/09/21 17:34:49;;;;;;;9.30;4.80;;;;;;;21.88;55.14;97690.16;435189;1253;99224;-44
2023/09/21 17:44:56;;;;;;;6.30;4.70;;;;;;;21.65;55.56;97691.48;435249;1256;111866;-41
2023/09/21 18:15:13;;;;;;;8.90;6.20;;;;;;;20.84;56.64;97691.45;435368;1255;106306;-40
2023/09/21 18:25:19;;;;;;;11.40;6.20;;;;;;;20.72;57.18;97693.99;435323;1253;99212;-41
2023/09/21 18:35:26;;;;;;;12.70;5.60;;;;;;;20.70;57.38;97696.52;435359;1254;111721;-40
2023/09/21 18:45:34;;;;;;;8.70;5.10;;;;;;;20.65;57.66;97692.39;435248;1256;109278;-41
2023/09/21 18:55:40;;;;;;;9.90;6.00;;;;;;;20.59;57.89;97693.79;435259;1253;99505;-42
2023/09/21 19:05:47;;;;;;;8.40;5.30;;;;;;;20.57;58.24;97689.41;435142;1256;107490;-42
2023/09/21 19:15:53;;;;;;;10.00;5.50;;;;;;;20.59;58.44;97684.06;435225;1256;98383;-42
2023/09/21 19:25:59;;;;;;;14.80;6.20;;;;;;;20.58;58.83;97685.41;435369;1252;109992;-42
2023/09/21 19:36:06;;;;;;;16.80;9.20;;;;;;;20.51;59.22;97684.88;435279;1256;108404;-41
2023/09/21 19:46:13;;;;;;;16.80;7.90;;;;;;;20.37;59.42;97680.64;435244;1253;98847;-41
2023/09/21 19:56:21;;;;;;;11.90;7.50;;;;;;;20.20;59.71;97666.60;435166;1252;108772;-38
2023/09/21 20:06:28;;;;;;;9.00;6.70;;;;;;;20.02;59.99;97666.17;435470;1256;99217;-43
2023/09/21 20:26:42;;;;;;;8.80;5.30;;;;;;;19.76;60.37;97659.82;435499;1253;106675;-42
2023/09/21 20:36:49;;;;;;;9.00;6.00;;;;;;;19.59;60.48;97649.09;435161;1256;98821;-42
2023/09/21 20:57:02;;;;;;;11.80;6.70;;;;;;;19.27;60.97;97643.69;435247;1253;99263;-43
2023/09/21 21:17:14;;;;;;;7.40;6.50;;;;;;;19.07;61.78;97625.29;435281;1253;106976;-41
2023/09/21 21:27:22;;;;;;;11.20;6.90;;;;;;;18.93;62.26;97620.31;435271;1252;99245;-42
2023/09/21 21:37:29;;;;;;;10.90;6.30;;;;;;;18.87;62.55;97610.13;435174;1256;109635;-41
2023/09/21 21:47:36;;;;;;;8.00;5.30;;;;;;;18.89;62.70;97601.13;435088;1256;99253;-42
2023/09/21 21:57:43;;;;;;;11.90;6.20;;;;;;;18.92;62.89;97594.63;435307;1253;111290;-42
2023/09/21 22:07:50;;;;;;;9.70;5.90;;;;;;;18.91;62.92;97592.43;435124;1253;108146;-41
2023/09/21 22:48:20;;;;;;;10.00;6.90;;;;;;;18.46;64.35;97574.58;435271;1256;111710;-41
2023/09/21 23:08:32;;;;;;;8.20;6.50;;;;;;;18.31;64.93;97575.74;435248;1253;99218;-41
2023/09/21 23:18:38;;;;;;;14.50;6.60;;;;;;;18.23;65.03;97576.11;435268;1267;109388;-41
2023/09/21 23:28:44;;;;;;;7.80;4.70;;;;;;;18.14;64.79;97574.23;435134;1263;99243;-42
2023/09/21 23:38:53;;;;;;;10.00;5.30;;;;;;;18.13;65.10;97569.29;435219;1256;110791;-41
2023/09/21 23:49:00;;;;;;;9.40;5.80;;;;;;;18.27;65.12;97564.77;435136;1256;108829;-42
2023/09/21 23:59:07;;;;;;;10.20;6.80;;;;;;;18.25;65.10;97561.89;435224;1255;97951;-41
